Time;durP1;ratioP1;P1;durP2;ratioP2;P2;SDS_P1;SDS_P2;PMS_P1;PMS_P2;Temp;Humidity;BMP_temperature;BMP_pressure;BME280_temperature;BME280_humidity;BME280_pressure;Samples;Min_cycle;Max_cycle;Signal;HPM_P1;HPM_P2
2022/11/03 00:01:41;;;;;;;44.10;24.20;;;;;;;8.35;83.02;99659.99;106722;1300;22154;-57
2022/11/03 00:04:10;;;;;;;34.80;20.90;;;;;;;8.29;82.93;99644.40;106628;1302;141725;-57
2022/11/03 00:06:38;;;;;;;34.30;20.20;;;;;;;8.37;83.08;99653.29;104043;1286;24345;-56
2022/11/03 00:09:07;;;;;;;29.50;18.00;;;;;;;8.38;83.12;99647.29;102316;1287;139744;-56
2022/11/03 00:11:34;;;;;;;26.10;15.70;;;;;;;8.39;82.99;99644.05;106477;1309;22140;-57
2022/11/03 00:14:01;;;;;;;27.60;15.70;;;;;;;8.39;82.85;99641.42;106731;1302;22175;-57
2022/11/03 00:16:28;;;;;;;25.30;15.40;;;;;;;8.34;82.91;99636.61;106610;1302;138091;-57
2022/11/03 00:18:55;;;;;;;;;;;;;;;8.36;82.92;99645.36;106778;1302;23683;-57
2022/11/03 00:21:21;;;;;;;24.80;15.80;;;;;;;8.34;82.91;99644.39;106712;1294;125462;-57
2022/11/03 00:23:48;;;;;;;;;;;;;;;8.33;83.04;99650.51;106782;1302;22518;-57
2022/11/03 00:26:25;;;;;;;33.40;18.30;;;;;;;8.33;83.14;99652.56;106721;1294;126779;-55
2022/11/03 00:28:54;;;;;;;28.40;15.80;;;;;;;8.32;83.16;99655.75;106752;1302;22261;-55
2022/11/03 00:31:21;;;;;;;31.50;17.40;;;;;;;8.32;83.28;99653.23;106826;1294;22122;-56
2022/11/03 00:33:48;;;;;;;27.90;16.80;;;;;;;8.32;83.22;99653.08;106655;1295;138412;-56
2022/11/03 00:36:16;;;;;;;;;;;;;;;8.32;83.22;99658.83;106803;1302;22366;-56
2022/11/03 00:38:43;;;;;;;36.00;19.70;;;;;;;8.32;83.21;99660.50;106672;1303;124374;-56
2022/11/03 00:41:10;;;;;;;29.80;18.80;;;;;;;8.31;83.25;99660.75;106737;1293;22315;-57
2022/11/03 00:43:37;;;;;;;34.30;20.20;;;;;;;8.30;83.38;99654.95;106888;1302;23198;-56
2022/11/03 00:46:04;;;;;;;30.90;18.50;;;;;;;8.30;83.48;99655.52;106604;1295;138388;-56
2022/11/03 00:48:32;;;;;;;36.70;19.90;;;;;;;8.30;83.48;99653.45;106712;1287;22764;-56
2022/11/03 00:51:08;;;;;;;29.00;19.40;;;;;;;8.31;83.51;99649.09;106634;1302;138851;-57
2022/11/03 00:53:45;;;;;;;30.20;18.90;;;;;;;8.32;83.51;99642.92;106761;1302;22194;-57
2022/11/03 00:56:13;;;;;;;36.10;19.20;;;;;;;8.31;83.59;99636.98;106643;1293;138188;-56
2022/11/03 00:58:41;;;;;;;30.30;18.70;;;;;;;8.31;83.69;99642.88;106740;1300;22154;-57
2022/11/03 01:01:10;;;;;;;33.10;20.40;;;;;;;8.31;83.74;99639.78;106764;1302;22298;-57
2022/11/03 01:03:38;;;;;;;29.30;19.10;;;;;;;8.32;83.81;99637.07;106678;1302;138700;-57
2022/11/03 01:08:52;;;;;;;29.90;18.40;;;;;;;8.33;84.03;99632.80;106596;1302;139146;-56
2022/11/03 01:14:06;;;;;;;30.20;18.20;;;;;;;8.33;84.17;99635.42;106733;1302;22227;-56
2022/11/03 01:16:32;;;;;;;35.60;20.00;;;;;;;8.31;84.25;99626.95;106552;1295;139154;-56
2022/11/03 01:18:59;;;;;;;33.20;19.10;;;;;;;8.34;84.21;99638.86;106693;1295;22247;-56
2022/11/03 01:21:26;;;;;;;;;;;;;;;8.35;84.43;99641.44;106660;1302;138446;-57
2022/11/03 01:23:53;;;;;;;32.10;17.90;;;;;;;8.33;84.55;99639.31;106771;1302;22119;-56
2022/11/03 01:26:20;;;;;;;34.40;19.10;;;;;;;8.35;84.56;99643.07;106774;1286;138114;-56
2022/11/03 01:28:47;;;;;;;31.70;18.60;;;;;;;8.36;84.81;99644.44;106721;1302;22993;-56
2022/11/03 01:31:17;;;;;;;29.30;19.00;;;;;;;8.36;84.96;99646.34;106761;1302;22156;-57
2022/11/03 01:33:47;;;;;;;32.00;19.90;;;;;;;8.38;85.01;99642.77;106683;1296;139030;-56
2022/11/03 01:36:14;;;;;;;31.40;19.90;;;;;;;8.40;85.18;99642.38;104821;1297;24296;-56
2022/11/03 01:38:41;;;;;;;30.90;19.90;;;;;;;8.41;85.33;99645.60;102329;1294;138491;-55
2022/11/03 01:41:13;;;;;;;33.10;20.60;;;;;;;8.42;85.45;99648.94;102478;1309;22470;-55
2022/11/03 01:43:40;;;;;;;32.00;21.50;;;;;;;8.43;85.56;99644.14;102361;1286;24848;-54
2022/11/03 01:46:10;;;;;;;34.60;20.40;;;;;;;8.44;85.64;99651.44;102302;1289;138319;-55
2022/11/03 01:48:43;;;;;;;35.00;20.30;;;;;;;8.44;85.72;99649.52;102443;1292;22477;-56
2022/11/03 01:51:10;;;;;;;39.80;20.60;;;;;;;8.43;85.73;99645.93;106641;1299;141232;-57
2022/11/03 01:53:37;;;;;;;;;;;;;;;8.44;86.01;99645.79;106670;1304;23168;-57
2022/11/03 01:56:03;;;;;;;31.70;19.00;;;;;;;8.45;86.05;99641.27;106731;1304;23366;-57
2022/11/03 01:58:32;;;;;;;29.60;18.70;;;;;;;8.47;86.12;99641.98;106661;1277;138579;-57
2022/11/03 02:00:59;;;;;;;30.30;19.30;;;;;;;8.48;86.12;99637.24;106737;1303;22156;-57
2022/11/03 02:03:27;;;;;;;;;;;;;;;8.50;86.12;99642.05;106727;1295;138125;-57
2022/11/03 02:05:53;;;;;;;29.90;17.90;;;;;;;8.51;86.24;99644.89;105458;1302;22497;-56
2022/11/03 02:09:05;;;;;;;32.80;20.70;;;;;;;8.52;86.26;99643.60;102346;1281;138263;-55
2022/11/03 02:14:17;;;;;;;34.10;19.70;;;;;;;8.54;86.43;99641.36;101861;1293;139864;-56
2022/11/03 02:16:45;;;;;;;;;;;;;;;8.55;86.36;99632.90;102048;1301;22534;-56
2022/11/03 02:19:47;;;;;;;27.60;18.60;;;;;;;8.56;86.37;99624.83;101930;1291;23915;-56
2022/11/03 02:22:45;;;;;;;29.40;18.60;;;;;;;8.55;86.27;99621.16;105292;1320;139298;-57
2022/11/03 02:25:35;;;;;;;36.60;20.60;;;;;;;8.54;86.38;99627.49;105715;1314;22222;-58
2022/11/03 02:28:02;;;;;;;28.20;18.10;;;;;;;8.52;86.39;99631.21;105494;1307;138681;-57
2022/11/03 02:30:55;;;;;;;32.70;18.70;;;;;;;8.51;86.61;99633.49;105730;1309;22203;-58
2022/11/03 02:33:28;;;;;;;31.70;19.40;;;;;;;8.47;86.67;99627.17;105006;1312;138345;-57
2022/11/03 02:36:02;;;;;;;35.00;20.00;;;;;;;8.51;86.73;99632.25;103752;1315;22787;-56
2022/11/03 02:38:29;;;;;;;30.40;19.00;;;;;;;8.51;86.98;99627.69;104551;1322;139841;-57
2022/11/03 02:40:57;;;;;;;;;;;;;;;8.53;87.00;99620.58;104863;1323;22639;-57
2022/11/03 02:43:24;;;;;;;27.10;17.70;;;;;;;8.54;87.21;99622.73;104997;1320;22367;-57
2022/11/03 02:45:50;;;;;;;;;;;;;;;8.55;87.21;99628.55;104792;1323;141102;-57
2022/11/03 02:48:17;;;;;;;24.30;15.20;;;;;;;8.56;87.48;99623.85;105174;1314;22203;-57
2022/11/03 02:50:44;;;;;;;;;;;;;;;8.56;87.48;99612.02;105595;1314;138508;-57
2022/11/03 02:53:11;;;;;;;32.50;19.20;;;;;;;8.58;87.47;99616.68;105666;1309;22361;-57
2022/11/03 02:55:55;;;;;;;29.00;17.90;;;;;;;8.59;87.65;99619.45;105523;1314;23267;-57
2022/11/03 02:58:43;;;;;;;31.00;19.00;;;;;;;8.60;87.71;99614.76;105479;1314;138608;-57
2022/11/03 03:01:26;;;;;;;33.30;19.80;;;;;;;8.61;87.80;99613.48;106283;1310;22176;-57
2022/11/03 03:03:54;;;;;;;32.50;19.20;;;;;;;8.59;87.84;99609.05;105993;1310;138496;-57
2022/11/03 03:06:28;;;;;;;33.20;19.80;;;;;;;8.63;88.02;99610.42;106109;1311;22352;-57
2022/11/03 03:08:58;;;;;;;33.40;18.60;;;;;;;8.61;87.94;99602.79;105980;1310;138138;-57
2022/11/03 03:11:37;;;;;;;38.50;21.40;;;;;;;8.65;87.93;99603.83;106569;1288;22302;-58
2022/11/03 03:14:13;;;;;;;44.50;23.30;;;;;;;8.65;88.04;99600.69;106827;1302;22098;-57
2022/11/03 03:17:02;;;;;;;44.20;24.10;;;;;;;8.65;88.12;99598.83;106725;1297;22208;-57
2022/11/03 03:19:37;;;;;;;43.80;22.40;;;;;;;8.64;88.31;99600.84;106714;1296;22210;-57
2022/11/03 03:22:12;;;;;;;44.30;24.50;;;;;;;8.65;88.52;99597.75;106643;1297;138776;-57
2022/11/03 03:24:54;;;;;;;48.30;25.20;;;;;;;8.65;88.70;99598.13;106714;1302;22155;-57
2022/11/03 03:27:23;;;;;;;48.30;25.10;;;;;;;8.66;88.90;99601.50;106527;1302;138953;-57
2022/11/03 03:29:52;;;;;;;47.30;23.80;;;;;;;8.66;89.04;99597.21;106616;1289;22188;-57
2022/11/03 03:32:20;;;;;;;49.20;25.40;;;;;;;8.67;89.20;99595.86;106527;1303;138121;-57
2022/11/03 03:34:46;;;;;;;55.30;25.50;;;;;;;8.67;89.30;99595.93;106770;1297;22129;-57
2022/11/03 03:37:13;;;;;;;48.40;24.50;;;;;;;8.68;89.53;99591.81;106602;1302;22170;-59
2022/11/03 03:39:40;;;;;;;;;;;;;;;8.69;89.60;99587.04;106564;1303;139986;-59
2022/11/03 03:42:07;;;;;;;50.00;23.90;;;;;;;8.69;89.57;99582.38;106773;1293;22189;-60
2022/11/03 03:44:34;;;;;;;50.90;24.80;;;;;;;8.69;89.76;99585.09;106637;1287;139035;-59
2022/11/03 03:47:03;;;;;;;50.30;25.40;;;;;;;8.69;89.94;99585.64;106676;1297;22135;-59
2022/11/03 03:49:29;;;;;;;47.80;25.00;;;;;;;8.68;90.03;99585.35;106668;1297;22285;-59
2022/11/03 03:51:56;;;;;;;;;;;;;;;8.67;90.06;99581.15;106684;1294;139906;-59
2022/11/03 03:54:23;;;;;;;48.30;24.20;;;;;;;8.68;90.39;99580.17;106772;1302;22148;-59
2022/11/03 03:56:57;;;;;;;50.50;25.40;;;;;;;8.68;90.40;99581.00;106559;1289;140843;-58
2022/11/03 03:59:24;;;;;;;48.30;24.60;;;;;;;8.67;90.43;99576.64;106680;1302;22177;-59
2022/11/03 04:01:51;;;;;;;49.80;24.20;;;;;;;8.66;90.60;99572.05;106744;1302;22180;-59
2022/11/03 04:04:18;;;;;;;51.40;25.80;;;;;;;8.63;90.68;99566.90;106657;1301;139171;-59
2022/11/03 04:06:45;;;;;;;;;;;;;;;8.67;90.73;99568.37;106724;1303;22390;-59
2022/11/03 04:09:11;;;;;;;46.50;24.50;;;;;;;8.67;90.80;99566.15;106700;1293;126615;-59
2022/11/03 04:22:53;;;;;;;54.20;26.90;;;;;;;8.68;91.43;99560.20;106568;1305;22342;-59
2022/11/03 04:25:20;;;;;;;;;;;;;;;8.68;91.43;99558.14;106813;1301;22452;-59
2022/11/03 04:27:47;;;;;;;42.90;23.10;;;;;;;8.69;91.68;99559.17;106738;1302;124761;-59
2022/11/03 04:30:18;;;;;;;40.60;21.80;;;;;;;8.68;91.69;99556.67;106813;1301;22910;-60
2022/11/03 04:32:46;;;;;;;39.20;22.40;;;;;;;8.69;91.81;99557.61;106538;1296;139320;-60
2022/11/03 04:35:19;;;;;;;38.20;21.20;;;;;;;8.70;91.87;99559.80;106767;1295;22171;-58
2022/11/03 04:37:56;;;;;;;36.70;20.10;;;;;;;8.71;91.78;99558.73;106803;1302;22159;-59
2022/11/03 04:40:23;;;;;;;39.10;22.40;;;;;;;8.72;91.88;99558.59;106498;1303;138084;-59
2022/11/03 04:42:49;;;;;;;37.50;20.90;;;;;;;8.73;91.99;99554.81;106758;1297;22849;-59
2022/11/03 04:45:30;;;;;;;33.60;20.50;;;;;;;8.74;91.97;99556.14;106578;1289;138509;-59
2022/11/03 04:47:57;;;;;;;35.40;20.10;;;;;;;8.74;92.10;99559.17;106664;1303;22074;-60
2022/11/03 04:50:24;;;;;;;31.50;18.70;;;;;;;8.74;92.04;99558.64;106707;1287;139563;-58
2022/11/03 04:52:56;;;;;;;29.30;16.80;;;;;;;8.75;92.07;99558.38;106667;1302;22913;-59
2022/11/03 04:55:23;;;;;;;28.30;16.80;;;;;;;8.75;92.33;99555.35;106781;1293;22140;-59
2022/11/03 04:57:53;;;;;;;32.10;17.80;;;;;;;8.76;92.47;99556.89;106603;1302;138642;-59
2022/11/03 05:43:30;;;;;;;17.80;11.40;;;;;;;8.91;95.00;99571.95;99283;1327;558899;-57
2022/11/03 05:45:57;;;;;;;;;;;;;;;8.90;95.09;99571.02;101428;1290;137734;-58
2022/11/03 05:48:26;;;;;;;14.60;9.20;;;;;;;8.90;95.22;99573.95;101409;1298;26589;-60
2022/11/03 05:50:58;;;;;;;17.50;10.30;;;;;;;8.91;95.52;99573.64;105259;1313;138198;-57
2022/11/03 05:53:30;;;;;;;16.50;8.60;;;;;;;8.92;95.84;99574.44;105755;1310;22199;-59
2022/11/03 05:56:02;;;;;;;13.50;8.30;;;;;;;8.95;95.90;99579.63;105198;1314;970242;-58
2022/11/03 05:58:31;;;;;;;14.10;8.70;;;;;;;8.97;96.24;99580.73;105911;1310;137761;-58
2022/11/03 06:00:59;;;;;;;12.80;8.70;;;;;;;8.99;96.22;99583.71;106065;1313;23347;-59
2022/11/03 06:03:29;;;;;;;13.60;7.90;;;;;;;9.01;96.38;99582.08;105987;1308;137909;-58
2022/11/03 06:05:57;;;;;;;14.90;8.90;;;;;;;9.05;96.63;99582.36;106034;1313;22154;-58
2022/11/03 06:08:33;;;;;;;12.20;7.70;;;;;;;9.09;96.59;99578.62;105899;1306;22472;-58
2022/11/03 06:11:00;;;;;;;10.50;8.30;;;;;;;9.12;96.74;99580.90;105922;1314;22247;-58
2022/11/03 06:13:33;;;;;;;13.90;8.10;;;;;;;9.15;96.81;99581.51;105812;1307;22115;-58
2022/11/03 06:16:23;;;;;;;12.00;7.70;;;;;;;9.17;96.83;99582.13;105951;1313;139216;-59
2022/11/03 06:18:53;;;;;;;12.40;7.00;;;;;;;9.18;96.74;99587.16;105951;1310;23334;-58
2022/11/03 06:21:21;;;;;;;10.60;7.90;;;;;;;9.20;96.94;99592.39;105921;1314;137691;-58
2022/11/03 06:23:48;;;;;;;8.70;6.80;;;;;;;9.22;97.03;99589.66;105916;1312;22127;-58
2022/11/03 06:26:17;;;;;;;11.00;7.20;;;;;;;9.25;97.00;99590.66;106064;1304;23348;-58
2022/11/03 06:28:44;;;;;;;11.00;7.00;;;;;;;9.27;97.28;99593.63;105899;1307;137667;-58
2022/11/03 06:31:22;;;;;;;10.40;7.20;;;;;;;9.31;97.17;99595.89;105982;1313;23036;-58
2022/11/03 06:33:50;;;;;;;12.90;7.60;;;;;;;9.33;97.10;99596.25;105991;1312;139369;-59
2022/11/03 06:36:19;;;;;;;13.50;8.10;;;;;;;9.35;97.32;99592.64;106018;1307;22152;-58
2022/11/03 06:38:54;;;;;;;12.30;8.80;;;;;;;9.36;97.34;99592.44;106029;1310;138122;-58
2022/11/03 06:41:28;;;;;;;14.70;9.10;;;;;;;9.39;97.49;99583.44;106138;1288;22284;-58
2022/11/03 06:43:55;;;;;;;12.10;8.70;;;;;;;9.43;97.49;99575.78;106100;1303;22223;-60
2022/11/03 06:46:24;;;;;;;13.00;9.40;;;;;;;9.45;97.53;99575.89;105984;1296;137640;-59
2022/11/03 06:48:51;;;;;;;13.30;9.60;;;;;;;9.48;97.76;99578.53;106135;1293;22259;-59
2022/11/03 06:51:26;;;;;;;14.00;10.50;;;;;;;9.50;97.62;99578.20;106016;1312;138150;-59
2022/11/03 06:53:57;;;;;;;14.00;10.10;;;;;;;9.51;97.68;99575.65;106098;1312;23099;-59
2022/11/03 06:56:27;;;;;;;17.30;11.50;;;;;;;9.50;97.75;99568.37;106104;1299;22386;-59
2022/11/03 06:58:57;;;;;;;18.60;12.80;;;;;;;9.56;97.64;99573.08;105775;1308;138230;-59
2022/11/03 07:01:25;;;;;;;15.80;11.40;;;;;;;9.58;97.81;99572.95;106103;1311;22985;-59
2022/11/03 07:04:02;;;;;;;15.70;11.50;;;;;;;9.60;97.92;99571.20;105910;1290;137901;-61
2022/11/03 07:06:34;;;;;;;21.40;13.60;;;;;;;9.64;98.06;99574.20;106012;1313;22456;-59
2022/11/03 07:09:03;;;;;;;19.30;13.30;;;;;;;9.66;97.95;99576.13;105765;1306;138114;-61
2022/11/03 07:11:34;;;;;;;17.80;12.50;;;;;;;9.68;98.09;99578.58;105979;1314;22127;-60
2022/11/03 07:14:15;;;;;;;77.20;45.70;;;;;;;9.69;98.20;99579.36;105879;1310;22145;-61
2022/11/03 07:16:45;;;;;;;24.40;14.20;;;;;;;9.73;98.26;99583.77;105933;1311;137776;-60
2022/11/03 07:19:22;;;;;;;21.20;14.00;;;;;;;9.75;98.19;99584.30;106022;1306;22177;-61
2022/11/03 07:21:57;;;;;;;18.50;12.00;;;;;;;9.75;98.40;99585.94;105991;1311;138065;-61
2022/11/03 07:24:26;;;;;;;19.20;12.70;;;;;;;9.80;98.48;99585.09;106084;1297;22388;-60
2022/11/03 07:26:56;;;;;;;21.10;11.80;;;;;;;9.82;98.44;99584.77;105895;1306;137841;-61
2022/11/03 07:29:24;;;;;;;21.40;13.50;;;;;;;9.83;98.49;99586.58;106023;1296;22217;-60
2022/11/03 07:31:51;;;;;;;18.30;12.30;;;;;;;9.84;98.63;99586.54;105962;1312;22126;-61
2022/11/03 07:34:20;;;;;;;16.30;12.50;;;;;;;9.84;98.69;99587.09;105938;1297;138801;-59
2022/11/03 07:36:49;;;;;;;20.70;11.00;;;;;;;9.86;98.70;99586.30;106048;1303;22995;-60
2022/11/03 07:39:21;;;;;;;20.30;11.60;;;;;;;9.84;98.99;99584.54;105890;1312;139830;-61
2022/11/03 07:41:49;;;;;;;19.30;11.10;;;;;;;9.89;99.07;99587.97;106007;1306;23032;-60
2022/11/03 07:44:19;;;;;;;17.80;10.30;;;;;;;9.89;99.33;99582.70;106086;1310;22136;-60
2022/11/03 07:46:46;;;;;;;17.60;10.80;;;;;;;9.90;99.53;99585.11;105937;1311;137867;-60
2022/11/03 07:49:25;;;;;;;13.80;10.30;;;;;;;9.91;99.48;99579.41;106057;1305;22236;-60
2022/11/03 07:51:51;;;;;;;18.20;10.90;;;;;;;9.94;99.89;99572.92;105902;1311;138801;-60
2022/11/03 07:54:19;;;;;;;;;;;;;;;9.97;99.80;99570.10;106113;1311;23245;-60
2022/11/03 07:56:53;;;;;;;19.50;11.20;;;;;;;9.98;99.94;99563.70;106024;1304;124319;-60
2022/11/03 07:59:32;;;;;;;15.70;11.40;;;;;;;10.01;99.97;99564.60;106041;1312;22125;-60
2022/11/03 08:01:59;;;;;;;17.60;10.40;;;;;;;10.04;100.00;99563.77;106095;1303;23382;-61
2022/11/03 08:04:27;;;;;;;15.10;10.70;;;;;;;10.07;100.00;99563.72;106013;1311;138155;-60
2022/11/03 08:06:54;;;;;;;18.80;11.10;;;;;;;10.11;100.00;99566.02;102859;1312;22493;-59
2022/11/03 08:09:21;;;;;;;20.30;11.30;;;;;;;10.13;100.00;99569.01;101434;1298;138724;-60
2022/11/03 08:11:48;;;;;;;23.30;13.70;;;;;;;10.15;100.00;99565.32;101510;1290;24211;-61
2022/11/03 08:14:15;;;;;;;26.80;18.40;;;;;;;10.16;100.00;99563.33;101671;1290;25461;-60
2022/11/03 08:16:42;;;;;;;22.00;12.90;;;;;;;10.17;100.00;99560.78;105527;1303;138809;-61
2022/11/03 08:19:09;;;;;;;;;;;;;;;10.19;100.00;99559.54;106097;1311;22457;-61
2022/11/03 08:21:39;;;;;;;17.50;10.80;;;;;;;10.19;100.00;99560.61;105965;1305;125132;-61
2022/11/03 08:24:06;;;;;;;;;;;;;;;10.21;100.00;99559.73;106072;1291;23144;-61
2022/11/03 08:26:33;;;;;;;15.20;9.90;;;;;;;10.24;100.00;99564.87;105969;1290;124335;-59
2022/11/03 08:29:00;;;;;;;;;;;;;;;10.26;100.00;99560.48;106122;1307;23272;-61
2022/11/03 08:31:29;;;;;;;20.80;10.40;;;;;;;10.25;100.00;99548.20;106068;1307;22096;-61
2022/11/03 08:33:55;;;;;;;18.10;11.60;;;;;;;10.27;100.00;99549.33;105973;1299;138237;-61
2022/11/03 08:36:23;;;;;;;15.90;11.10;;;;;;;10.32;100.00;99550.70;103799;1303;25133;-60
2022/11/03 08:38:50;;;;;;;;;;;;;;;10.33;100.00;99549.23;101505;1313;139911;-60
2022/11/03 08:41:17;;;;;;;18.00;11.10;;;;;;;10.34;100.00;99547.95;101622;1307;26491;-60
2022/11/03 08:43:44;;;;;;;24.10;14.90;;;;;;;10.36;100.00;99545.14;101633;1309;25558;-60
2022/11/03 08:46:11;;;;;;;19.10;12.30;;;;;;;10.38;100.00;99543.36;101246;1293;140634;-58
2022/11/03 08:48:44;;;;;;;15.40;10.60;;;;;;;10.35;100.00;99537.70;101583;1308;25368;-59
2022/11/03 08:51:12;;;;;;;16.80;10.90;;;;;;;10.40;100.00;99543.73;101549;1304;139049;-58
2022/11/03 08:53:41;;;;;;;20.50;12.00;;;;;;;10.41;100.00;99543.37;106083;1306;22183;-59
2022/11/03 08:56:10;;;;;;;16.10;11.00;;;;;;;10.41;99.92;99538.41;106070;1304;23327;-58
2022/11/03 08:58:41;;;;;;;15.90;9.00;;;;;;;10.42;99.95;99540.00;105926;1311;138057;-58
2022/11/03 09:01:08;;;;;;;15.50;8.30;;;;;;;10.41;99.65;99534.60;106086;1311;22202;-60
2022/11/03 09:03:34;;;;;;;11.40;8.00;;;;;;;10.40;99.69;99534.58;105962;1311;138836;-58
2022/11/03 09:06:02;;;;;;;13.30;7.50;;;;;;;10.36;99.46;99529.16;104351;1311;22611;-59
2022/11/03 09:08:30;;;;;;;13.50;7.90;;;;;;;10.38;99.45;99531.92;101488;1306;25376;-58
2022/11/03 09:11:18;;;;;;;13.20;7.20;;;;;;;10.39;99.34;99534.09;106113;1312;22235;-59
2022/11/03 09:13:45;;;;;;;;;;;;;;;10.39;99.33;99530.99;106111;1310;23439;-59
2022/11/03 09:16:11;;;;;;;42.90;27.00;;;;;;;10.40;99.18;99532.96;106008;1311;124591;-58
2022/11/03 09:18:38;;;;;;;19.30;13.40;;;;;;;10.42;99.49;99532.48;106107;1305;22209;-61
2022/11/03 09:21:05;;;;;;;11.50;8.30;;;;;;;10.44;99.29;99529.84;105971;1311;138863;-59
2022/11/03 09:23:31;;;;;;;12.70;6.90;;;;;;;10.46;99.53;99528.30;106106;1311;22381;-59
2022/11/03 09:25:58;;;;;;;;;;;;;;;10.50;99.37;99526.05;106065;1312;22418;-60
2022/11/03 09:28:25;;;;;;;10.80;6.20;;;;;;;10.48;99.16;99526.08;105962;1311;126021;-60
2022/11/03 09:30:52;;;;;;;;;;;;;;;10.50;99.17;99531.08;106110;1311;22377;-60
2022/11/03 09:33:19;;;;;;;11.30;7.20;;;;;;;10.49;99.17;99530.83;105970;1310;124597;-60
2022/11/03 09:35:47;;;;;;;8.90;6.60;;;;;;;10.48;99.12;99530.16;106052;1311;22131;-60
2022/11/03 09:38:13;;;;;;;11.50;7.10;;;;;;;10.47;99.19;99524.76;106075;1311;22120;-60
2022/11/03 09:40:44;;;;;;;14.00;7.20;;;;;;;10.45;99.04;99525.94;105948;1309;139623;-60
2022/11/03 09:43:10;;;;;;;10.30;6.90;;;;;;;10.46;99.02;99529.53;106115;1304;22249;-60
2022/11/03 09:45:38;;;;;;;14.00;7.60;;;;;;;10.45;99.03;99525.11;105971;1311;138385;-60
2022/11/03 09:48:08;;;;;;;9.60;7.10;;;;;;;10.47;99.14;99526.28;106085;1306;22141;-60
2022/11/03 09:50:36;;;;;;;10.30;6.40;;;;;;;10.47;99.33;99524.05;106064;1304;22256;-60
2022/11/03 09:53:03;;;;;;;11.50;7.20;;;;;;;10.46;99.27;99523.06;105857;1296;22155;-61
2022/11/03 09:55:32;;;;;;;12.40;6.80;;;;;;;10.46;99.31;99522.02;106079;1306;22445;-60
2022/11/03 09:58:00;;;;;;;13.20;7.30;;;;;;;10.45;99.18;99520.05;105952;1293;138314;-60
2022/11/03 10:00:27;;;;;;;12.60;7.00;;;;;;;10.44;99.10;99517.14;105867;1290;22408;-59
2022/11/03 10:02:54;;;;;;;11.40;6.30;;;;;;;10.44;99.25;99519.33;105965;1311;138487;-60
2022/11/03 10:05:24;;;;;;;9.40;5.70;;;;;;;10.43;99.04;99517.67;106049;1290;22252;-60
2022/11/03 10:07:56;;;;;;;8.80;5.90;;;;;;;10.40;98.99;99516.45;106070;1311;22083;-60
2022/11/03 10:10:24;;;;;;;9.50;6.30;;;;;;;10.39;98.91;99514.59;105994;1296;139629;-60
2022/11/03 10:12:52;;;;;;;10.80;6.40;;;;;;;10.39;98.91;99514.23;106016;1304;22232;-61
2022/11/03 10:15:21;;;;;;;20.00;12.50;;;;;;;10.39;98.87;99516.41;105564;1297;140236;-60
2022/11/03 10:17:51;;;;;;;7.90;5.80;;;;;;;10.38;98.83;99515.46;105652;1306;23216;-61
2022/11/03 10:20:20;;;;;;;7.80;5.60;;;;;;;10.37;98.69;99519.17;106076;1311;22306;-61
2022/11/03 10:22:51;;;;;;;7.00;5.30;;;;;;;10.35;98.72;99520.88;105971;1297;139258;-61
2022/11/03 10:25:28;;;;;;;7.80;4.80;;;;;;;10.35;98.47;99526.70;105942;1297;22211;-61
2022/11/03 10:28:27;;;;;;;4.20;2.40;;;;;;;10.29;97.78;99527.79;105982;1311;138513;-61
2022/11/03 10:31:01;;;;;;;3.10;2.50;;;;;;;10.18;96.76;99522.66;105181;1318;22186;-61
2022/11/03 10:33:53;;;;;;;6.10;3.00;;;;;;;10.13;96.25;99529.47;105064;1306;138773;-61
2022/11/03 10:36:25;;;;;;;4.50;3.30;;;;;;;10.05;95.82;99529.27;105185;1315;22470;-60
2022/11/03 10:38:52;;;;;;;5.90;3.00;;;;;;;9.99;95.90;99537.14;105022;1305;139232;-61
2022/11/03 10:41:19;;;;;;;;;;;;;;;9.93;95.95;99539.98;105191;1305;22396;-61
2022/11/03 10:44:10;;;;;;;2.50;2.20;;;;;;;9.88;95.80;99538.80;105143;1320;22398;-61
2022/11/03 10:46:38;;;;;;;4.60;3.10;;;;;;;9.83;95.97;99542.55;102369;1306;138064;-60
2022/11/03 10:49:18;;;;;;;6.10;3.30;;;;;;;9.79;96.05;99539.41;100749;1319;26574;-60
2022/11/03 10:51:51;;;;;;;6.30;4.30;;;;;;;9.75;96.40;99540.55;100671;1319;138857;-60
2022/11/03 10:54:20;;;;;;;7.10;4.30;;;;;;;9.73;96.56;99545.85;100763;1305;22698;-60
2022/11/03 10:56:47;;;;;;;8.10;4.30;;;;;;;9.69;96.78;99546.78;104551;1315;139819;-60
2022/11/03 10:59:30;;;;;;;5.20;3.00;;;;;;;9.64;96.98;99546.83;105157;1320;22163;-61
2022/11/03 11:01:58;;;;;;;5.30;2.90;;;;;;;9.57;96.89;99547.05;105090;1313;22147;-61
2022/11/03 11:04:25;;;;;;;5.70;2.70;;;;;;;9.52;96.62;99548.34;105024;1317;138871;-61
2022/11/03 11:06:52;;;;;;;;;;;;;;;9.47;95.93;99545.77;105491;1305;22395;-61
2022/11/03 11:09:26;;;;;;;3.00;2.10;;;;;;;9.40;95.68;99545.93;105986;1311;126136;-61
2022/11/03 11:12:13;;;;;;;4.30;2.50;;;;;;;9.33;95.13;99545.56;105863;1311;22274;-61
2022/11/03 11:15:00;;;;;;;4.20;2.30;;;;;;;9.29;95.07;99540.88;105860;1312;138371;-60
2022/11/03 11:17:41;;;;;;;7.80;2.80;;;;;;;9.27;95.16;99547.14;101587;1297;22466;-60
2022/11/03 11:20:17;;;;;;;5.60;2.90;;;;;;;9.24;94.99;99545.31;101508;1304;25280;-60
2022/11/03 11:22:44;;;;;;;6.90;3.60;;;;;;;9.19;95.04;99539.60;101450;1290;137949;-60
2022/11/03 11:25:11;;;;;;;5.60;3.60;;;;;;;9.17;95.36;99539.02;101372;1313;139209;-59
2022/11/03 11:27:38;;;;;;;6.20;3.50;;;;;;;9.16;95.65;99536.83;101158;1299;22513;-59
2022/11/03 11:30:17;;;;;;;;;;;;;;;9.14;95.81;99532.77;101158;1293;26351;-59
2022/11/03 11:32:44;;;;;;;4.80;2.90;;;;;;;9.11;95.99;99540.16;106193;1304;22156;-59
2022/11/03 11:35:14;;;;;;;8.50;3.60;;;;;;;9.09;96.35;99541.00;106205;1311;22109;-60
2022/11/03 11:37:42;;;;;;;4.50;3.30;;;;;;;9.08;96.49;99537.30;106085;1310;138035;-60
2022/11/03 11:40:12;;;;;;;4.10;3.20;;;;;;;9.06;96.71;99535.38;106209;1305;22168;-60
2022/11/03 11:43:05;;;;;;;3.80;2.60;;;;;;;9.06;96.99;99534.34;106081;1303;137932;-60
2022/11/03 11:46:10;;;;;;;5.60;3.60;;;;;;;9.07;97.15;99533.64;106158;1303;22225;-60
2022/11/03 11:48:39;;;;;;;5.30;3.10;;;;;;;9.07;97.32;99530.50;106084;1303;137947;-60
2022/11/03 11:51:08;;;;;;;5.60;3.00;;;;;;;9.09;97.43;99532.31;106129;1299;22252;-60
2022/11/03 11:53:41;;;;;;;6.80;3.70;;;;;;;9.11;97.59;99530.80;105998;1310;22313;-60
2022/11/03 11:56:09;;;;;;;6.20;3.90;;;;;;;9.12;97.85;99527.13;106094;1303;138274;-60
2022/11/03 11:58:53;;;;;;;7.50;3.70;;;;;;;9.13;98.05;99528.95;106023;1311;22358;-60
2022/11/03 12:01:29;;;;;;;5.40;3.20;;;;;;;9.14;98.19;99527.12;106076;1311;138096;-60
2022/11/03 12:03:58;;;;;;;5.90;3.60;;;;;;;9.16;98.17;99528.63;106185;1311;22165;-61
2022/11/03 12:06:35;;;;;;;6.10;3.40;;;;;;;9.18;98.45;99528.92;106112;1310;140844;-59
2022/11/03 12:09:14;;;;;;;;;;;;;;;9.19;98.57;99529.98;106241;1302;22385;-60
2022/11/03 12:11:44;;;;;;;7.20;3.80;;;;;;;9.19;98.62;99530.30;106215;1311;22179;-60
2022/11/03 12:14:28;;;;;;;54.40;30.40;;;;;;;9.19;98.59;99526.97;106136;1309;138646;-60
2022/11/03 12:17:17;;;;;;;9.80;5.40;;;;;;;9.20;98.63;99528.90;106230;1311;22177;-58
2022/11/03 12:19:54;;;;;;;5.30;3.70;;;;;;;9.22;98.88;99525.83;106130;1311;138798;-59
2022/11/03 12:22:27;;;;;;;8.30;4.10;;;;;;;9.23;99.10;99522.41;106178;1303;22132;-58
2022/11/03 12:25:03;;;;;;;6.00;4.40;;;;;;;9.25;99.13;99522.82;106118;1310;139831;-58
2022/11/03 12:27:29;;;;;;;8.70;4.20;;;;;;;9.29;99.25;99523.64;106144;1303;22157;-58
2022/11/03 12:30:01;;;;;;;7.60;4.60;;;;;;;9.32;99.54;99521.23;106188;1311;23221;-61
2022/11/03 12:32:27;;;;;;;93.60;54.90;;;;;;;9.36;99.46;99518.00;106076;1288;138214;-60
2022/11/03 12:35:03;;;;;;;15.20;8.80;;;;;;;9.40;99.64;99520.14;106218;1311;22140;-61
2022/11/03 12:37:30;;;;;;;10.00;5.80;;;;;;;9.41;99.50;99522.40;105719;1318;139617;-60
2022/11/03 12:39:58;;;;;;;7.80;5.60;;;;;;;9.44;99.59;99523.04;106220;1310;22891;-60
2022/11/03 12:42:24;;;;;;;6.50;3.90;;;;;;;9.46;99.69;99523.84;106104;1296;138462;-60
2022/11/03 12:44:52;;;;;;;5.50;3.60;;;;;;;9.49;99.48;99521.11;106240;1311;23016;-61